Time;durP1;ratioP1;P1;durP2;ratioP2;P2;SDS_P1;SDS_P2;PMS_P1;PMS_P2;Temp;Humidity;BMP_temperature;BMP_pressure;BME280_temperature;BME280_humidity;BME280_pressure;Samples;Min_cycle;Max_cycle;Signal;HPM_P1;HPM_P2
2023/06/07 00:02:20;;;;;;;19.63;5.28;;;;;;;;;;6286993;22;20235;-90
2023/06/07 00:04:48;;;;;;;21.70;5.00;;;;;;;;;;6310192;22;20010;-91
2023/06/07 00:07:19;;;;;;;24.05;5.13;;;;;;;;;;6286718;22;20088;-89
2023/06/07 00:09:49;;;;;;;28.88;5.75;;;;;;;;;;6285787;22;20349;-90
2023/06/07 00:12:15;;;;;;;24.38;6.32;;;;;;;;;;6311619;22;20058;-89
2023/06/07 00:14:43;;;;;;;28.33;5.75;;;;;;;;;;6286638;22;20014;-90
2023/06/07 00:17:15;;;;;;;18.58;5.10;;;;;;;;;;6287370;22;20011;-91
2023/06/07 00:19:42;;;;;;;15.15;5.75;;;;;;;;;;6287966;22;20006;-91
2023/06/07 00:22:08;;;;;;;15.48;5.85;;;;;;;;;;6287469;22;20499;-91
2023/06/07 00:24:35;;;;;;;12.15;5.28;;;;;;;;;;6284925;22;20018;-91
2023/06/07 00:27:01;;;;;;;23.05;5.47;;;;;;;;;;6282473;22;20040;-91
2023/06/07 00:29:27;;;;;;;24.58;5.93;;;;;;;;;;6283568;22;20011;-92
2023/06/07 00:31:56;;;;;;;25.58;5.03;;;;;;;;;;6285449;22;20032;-91
2023/06/07 00:34:23;;;;;;;25.35;4.95;;;;;;;;;;6285497;22;20003;-90
2023/06/07 00:36:52;;;;;;;21.00;4.75;;;;;;;;;;6310403;22;20034;-92
2023/06/07 00:39:24;;;;;;;19.83;4.97;;;;;;;;;;6341439;22;20052;-90
2023/06/07 00:41:56;;;;;;;17.90;5.35;;;;;;;;;;6290342;22;20019;-91
2023/06/07 00:44:23;;;;;;;20.08;5.00;;;;;;;;;;6290647;22;20007;-91
2023/06/07 00:46:52;;;;;;;19.55;4.32;;;;;;;;;;6289811;22;20011;-90
2023/06/07 00:49:19;;;;;;;22.83;4.45;;;;;;;;;;6286492;22;20010;-91
2023/06/07 00:51:47;;;;;;;16.95;4.05;;;;;;;;;;6314064;22;20092;-91
2023/06/07 00:54:33;;;;;;;19.63;4.53;;;;;;;;;;6313538;22;20513;-90
2023/06/07 00:57:03;;;;;;;18.35;6.43;;;;;;;;;;6308814;22;20002;-91
2023/06/07 00:59:29;;;;;;;13.77;5.05;;;;;;;;;;6285647;22;20022;-91
2023/06/07 01:01:56;;;;;;;20.23;5.90;;;;;;;;;;6284322;22;20014;-91
2023/06/07 01:04:23;;;;;;;20.85;5.05;;;;;;;;;;6315233;22;20017;-91
2023/06/07 01:07:11;;;;;;;21.83;5.45;;;;;;;;;;6319064;22;20215;-91
2023/06/07 01:09:37;;;;;;;24.55;5.00;;;;;;;;;;6313225;22;20011;-90
2023/06/07 01:12:08;;;;;;;21.98;5.20;;;;;;;;;;6287594;22;20006;-91
2023/06/07 01:14:35;;;;;;;24.08;5.00;;;;;;;;;;6285101;22;20424;-91
2023/06/07 01:17:12;;;;;;;17.95;5.75;;;;;;;;;;6314050;22;19999;-91
2023/06/07 01:20:04;;;;;;;19.88;4.10;;;;;;;;;;6311581;22;20007;-91
2023/06/07 01:22:27;;;;;;;25.83;5.95;;;;;;;;;;6341501;22;20003;-91
2023/06/07 01:24:56;;;;;;;19.58;4.78;;;;;;;;;;6315491;22;20108;-90
2023/06/07 01:27:27;;;;;;;21.25;5.22;;;;;;;;;;6289866;22;20015;-91
2023/06/07 01:29:55;;;;;;;18.13;4.25;;;;;;;;;;6312878;22;20007;-91
2023/06/07 01:32:45;;;;;;;18.40;4.07;;;;;;;;;;6315117;22;20003;-89
2023/06/07 01:35:12;;;;;;;16.77;4.95;;;;;;;;;;6303664;22;20003;-91
2023/06/07 01:37:38;;;;;;;20.73;4.65;;;;;;;;;;6287216;22;20015;-92
2023/06/07 01:40:09;;;;;;;29.50;4.22;;;;;;;;;;6290917;22;20010;-91
2023/06/07 01:42:42;;;;;;;24.48;4.63;;;;;;;;;;6318083;22;20018;-91
2023/06/07 01:45:13;;;;;;;22.08;4.20;;;;;;;;;;6292073;22;20025;-91
2023/06/07 01:47:42;;;;;;;19.23;4.00;;;;;;;;;;6317124;22;20320;-91
2023/06/07 01:50:09;;;;;;;18.23;4.70;;;;;;;;;;6314230;22;20011;-93
2023/06/07 01:52:38;;;;;;;21.27;4.88;;;;;;;;;;6316802;22;20003;-91
2023/06/07 01:55:21;;;;;;;23.02;4.53;;;;;;;;;;6287575;22;20353;-91
2023/06/07 01:57:50;;;;;;;16.58;5.28;;;;;;;;;;6315059;22;20002;-91
2023/06/07 02:00:35;;;;;;;18.20;4.30;;;;;;;;;;6313926;22;20002;-91
2023/06/07 02:03:17;;;;;;;21.05;5.00;;;;;;;;;;6289608;22;20452;-91
2023/06/07 02:05:53;;;;;;;15.45;4.43;;;;;;;;;;6314678;22;20010;-91
2023/06/07 02:08:42;;;;;;;13.57;4.45;;;;;;;;;;6315665;22;20011;-89
2023/06/07 02:11:12;;;;;;;24.10;4.70;;;;;;;;;;6316295;22;20562;-91
2023/06/07 02:13:42;;;;;;;15.52;4.50;;;;;;;;;;6289425;22;20425;-91
2023/06/07 02:16:11;;;;;;;16.08;4.60;;;;;;;;;;6289916;22;20007;-91
2023/06/07 02:18:40;;;;;;;19.23;4.70;;;;;;;;;;6288180;22;20021;-91
2023/06/07 02:21:08;;;;;;;21.30;5.60;;;;;;;;;;6315030;22;20033;-92
2023/06/07 02:23:43;;;;;;;20.25;5.45;;;;;;;;;;6288386;22;20007;-91
2023/06/07 02:26:16;;;;;;;14.30;4.90;;;;;;;;;;6292491;22;20015;-92
2023/06/07 02:28:45;;;;;;;16.50;5.88;;;;;;;;;;6292025;22;20456;-91
2023/06/07 02:31:11;;;;;;;19.98;4.78;;;;;;;;;;6290742;22;20003;-92
2023/06/07 02:33:58;;;;;;;22.50;5.03;;;;;;;;;;6291212;22;20013;-91
2023/06/07 02:36:29;;;;;;;13.80;4.35;;;;;;;;;;6295439;22;20007;-92
2023/06/07 02:38:55;;;;;;;16.23;4.72;;;;;;;;;;6292711;22;20018;-91
2023/06/07 02:41:22;;;;;;;11.70;4.10;;;;;;;;;;6293910;22;20014;-90
2023/06/07 02:43:48;;;;;;;18.02;4.00;;;;;;;;;;6294208;22;20032;-93
2023/06/07 02:46:15;;;;;;;28.92;4.63;;;;;;;;;;6291570;22;20348;-91
2023/06/07 02:48:42;;;;;;;26.52;5.75;;;;;;;;;;6292345;22;20015;-91
2023/06/07 02:51:15;;;;;;;15.90;4.07;;;;;;;;;;6293490;22;20007;-90
2023/06/07 02:53:41;;;;;;;15.27;3.85;;;;;;;;;;6293244;22;20094;-90
2023/06/07 02:56:12;;;;;;;21.17;4.50;;;;;;;;;;6293951;22;20006;-90
2023/06/07 02:58:39;;;;;;;18.60;4.18;;;;;;;;;;6319427;22;20018;-90
2023/06/07 03:01:07;;;;;;;18.73;4.40;;;;;;;;;;6319774;22;20066;-91
2023/06/07 03:04:11;;;;;;;12.85;4.28;;;;;;;;;;6318071;22;20007;-90
2023/06/07 03:06:52;;;;;;;20.80;4.63;;;;;;;;;;6319077;22;20021;-90
2023/06/07 03:09:18;;;;;;;23.88;4.90;;;;;;;;;;6318901;22;20014;-91
2023/06/07 03:11:45;;;;;;;20.92;5.05;;;;;;;;;;6319526;22;20007;-90
2023/06/07 03:14:35;;;;;;;16.25;4.47;;;;;;;;;;6294762;22;20013;-90
2023/06/07 03:17:02;;;;;;;19.85;4.75;;;;;;;;;;6309301;22;20003;-91
2023/06/07 03:19:29;;;;;;;21.55;5.13;;;;;;;;;;6291906;22;20517;-91
2023/06/07 03:22:08;;;;;;;19.00;5.82;;;;;;;;;;6292831;22;20036;-90
2023/06/07 03:24:36;;;;;;;15.13;4.68;;;;;;;;;;6318367;22;20032;-94
2023/06/07 03:27:03;;;;;;;18.48;4.75;;;;;;;;;;6318498;22;20010;-90
2023/06/07 03:29:30;;;;;;;22.80;5.50;;;;;;;;;;6291659;22;20014;-90
2023/06/07 03:32:07;;;;;;;17.90;4.82;;;;;;;;;;6318714;22;19999;-91
2023/06/07 03:34:33;;;;;;;21.13;5.18;;;;;;;;;;6317953;22;20390;-90
2023/06/07 03:36:59;;;;;;;16.30;4.95;;;;;;;;;;6290524;22;20534;-90
2023/06/07 03:39:25;;;;;;;11.27;4.85;;;;;;;;;;6288800;22;20332;-91
2023/06/07 03:41:59;;;;;;;14.77;4.68;;;;;;;;;;6313280;22;20019;-91
2023/06/07 03:44:25;;;;;;;21.08;5.20;;;;;;;;;;6292776;22;20036;-91
2023/06/07 03:46:53;;;;;;;15.90;4.85;;;;;;;;;;6290888;22;20060;-91
2023/06/07 03:52:12;;;;;;;8.15;3.30;;;;;;;;;;6285872;22;20455;-92
2023/06/07 03:54:45;;;;;;;17.15;5.32;;;;;;;;;;6315131;22;20007;-91
2023/06/07 03:57:12;;;;;;;13.18;4.30;;;;;;;;;;6290313;22;20032;-92
2023/06/07 04:00:00;;;;;;;14.23;3.88;;;;;;;;;;6290772;22;20069;-92
2023/06/07 04:02:27;;;;;;;18.33;3.78;;;;;;;;;;6316189;22;20014;-91
2023/06/07 04:04:54;;;;;;;12.50;3.72;;;;;;;;;;6290325;22;20006;-89
2023/06/07 04:07:23;;;;;;;18.40;3.60;;;;;;;;;;6315085;22;20007;-92
2023/06/07 04:09:52;;;;;;;11.20;3.95;;;;;;;;;;6287926;22;20007;-90
2023/06/07 04:12:19;;;;;;;21.48;4.72;;;;;;;;;;6288831;22;20320;-91
2023/06/07 04:14:46;;;;;;;17.38;3.90;;;;;;;;;;6287963;22;20808;-90
2023/06/07 04:17:15;;;;;;;18.52;3.78;;;;;;;;;;6314139;22;20037;-91
2023/06/07 04:19:41;;;;;;;13.20;3.40;;;;;;;;;;6286129;22;20014;-90
2023/06/07 04:22:11;;;;;;;19.83;3.72;;;;;;;;;;6311874;22;20042;-90
2023/06/07 04:24:37;;;;;;;15.13;3.40;;;;;;;;;;6312123;22;20014;-90
2023/06/07 04:27:11;;;;;;;12.48;3.67;;;;;;;;;;6286305;22;20011;-91
2023/06/07 04:29:40;;;;;;;20.15;3.90;;;;;;;;;;6313568;22;20007;-90
2023/06/07 04:32:13;;;;;;;18.52;3.83;;;;;;;;;;6286850;22;20014;-91
2023/06/07 04:34:41;;;;;;;14.43;3.58;;;;;;;;;;6288107;22;20010;-91
2023/06/07 04:37:09;;;;;;;21.13;3.72;;;;;;;;;;6312190;22;20009;-92
2023/06/07 04:39:36;;;;;;;18.90;3.50;;;;;;;;;;6311823;22;19998;-91
2023/06/07 04:42:04;;;;;;;10.73;3.40;;;;;;;;;;6310800;22;20018;-91
2023/06/07 04:44:30;;;;;;;13.30;3.47;;;;;;;;;;6286922;22;20046;-90
2023/06/07 04:46:59;;;;;;;17.67;2.83;;;;;;;;;;6313344;22;20299;-92
2023/06/07 04:49:26;;;;;;;13.68;3.40;;;;;;;;;;6311769;22;20007;-91
2023/06/07 04:51:56;;;;;;;13.50;3.42;;;;;;;;;;6284858;22;20036;-91
2023/06/07 04:54:22;;;;;;;11.73;4.32;;;;;;;;;;6310397;22;20007;-90
2023/06/07 04:56:52;;;;;;;14.65;3.83;;;;;;;;;;6285257;22;20007;-91
2023/06/07 04:59:25;;;;;;;10.02;2.85;;;;;;;;;;6310104;22;20006;-90
2023/06/07 05:01:52;;;;;;;14.77;3.20;;;;;;;;;;6310847;22;20007;-91
2023/06/07 05:04:19;;;;;;;13.88;3.28;;;;;;;;;;6286358;22;20022;-91
2023/06/07 05:06:46;;;;;;;15.00;3.78;;;;;;;;;;6312085;22;20018;-90
2023/06/07 05:09:13;;;;;;;16.77;3.47;;;;;;;;;;6312498;22;20003;-91
2023/06/07 05:11:39;;;;;;;11.35;3.15;;;;;;;;;;6285739;22;20015;-89
2023/06/07 05:14:06;;;;;;;17.42;3.10;;;;;;;;;;6285281;22;20003;-91
2023/06/07 05:16:33;;;;;;;14.55;4.15;;;;;;;;;;6287829;22;20003;-90
2023/06/07 05:19:20;;;;;;;12.52;3.25;;;;;;;;;;6289418;22;20018;-90
2023/06/07 05:22:06;;;;;;;;;;;;;;;;;;;;;
2023/06/07 05:24:33;;;;;;;10.52;3.40;;;;;;;;;;6319781;22;20050;-90
2023/06/07 05:26:59;;;;;;;14.93;4.18;;;;;;;;;;6315296;22;20086;-92
2023/06/07 05:29:32;;;;;;;14.50;3.03;;;;;;;;;;6319710;22;20011;-92
2023/06/07 05:32:01;;;;;;;22.92;3.53;;;;;;;;;;6314563;22;20005;-92
2023/06/07 05:34:45;;;;;;;;;;;;;;;;;;;;;
2023/06/07 05:37:19;;;;;;;15.40;3.15;;;;;;;;;;6344280;22;20053;-91
2023/06/07 05:39:49;;;;;;;15.88;3.60;;;;;;;;;;6308242;22;20098;-93
2023/06/07 05:42:38;;;;;;;11.88;3.25;;;;;;;;;;6312373;22;20023;-91
2023/06/07 05:56:16;;;;;;;;;;;;;;;;;;;;;
2023/06/07 05:58:52;;;;;;;19.23;2.90;;;;;;;;;;6231893;23;20032;-91
2023/06/07 06:01:30;;;;;;;8.70;2.90;;;;;;;;;;6235718;23;20008;-91
2023/06/07 06:04:24;;;;;;;16.95;3.50;;;;;;;;;;6236733;23;20026;-90
2023/06/07 06:06:52;;;;;;;17.25;3.72;;;;;;;;;;6254959;23;20624;-90
2023/06/07 06:09:19;;;;;;;17.15;3.90;;;;;;;;;;6228445;23;20349;-89
2023/06/07 06:11:50;;;;;;;11.80;3.10;;;;;;;;;;6252882;23;20008;-90
2023/06/07 06:14:20;;;;;;;11.10;3.15;;;;;;;;;;6204674;23;20145;-89
2023/06/07 06:16:50;;;;;;;12.35;2.88;;;;;;;;;;6212756;23;20028;-89
2023/06/07 06:19:35;;;;;;;;;;;;;;;;;;;;;
2023/06/07 06:22:05;;;;;;;9.35;2.70;;;;;;;;;;6253098;23;20103;-89
2023/06/07 06:24:35;;;;;;;10.75;2.97;;;;;;;;;;6227220;23;20026;-91
2023/06/07 06:27:20;;;;;;;8.38;2.72;;;;;;;;;;6202485;23;20030;-89
2023/06/07 06:29:47;;;;;;;16.55;3.03;;;;;;;;;;6205865;23;20035;-90
2023/06/07 06:32:15;;;;;;;10.05;2.95;;;;;;;;;;6226453;23;20004;-90
2023/06/07 06:35:04;;;;;;;10.63;3.90;;;;;;;;;;6232072;23;20016;-90
2023/06/07 06:37:31;;;;;;;16.45;3.30;;;;;;;;;;6227170;23;20011;-89
2023/06/07 06:42:53;;;;;;;13.05;3.15;;;;;;;;;;6072787;23;20074;-90
2023/06/07 06:45:20;;;;;;;13.25;3.05;;;;;;;;;;6218048;23;20016;-90
2023/06/07 06:47:46;;;;;;;12.90;2.78;;;;;;;;;;6197042;23;20008;-89
2023/06/07 06:50:25;;;;;;;10.13;3.13;;;;;;;;;;6196992;23;20142;-90
2023/06/07 06:53:17;;;;;;;11.65;2.90;;;;;;;;;;6196816;23;20463;-90
2023/06/07 06:58:40;;;;;;;;;;;;;;;;;;;;;
2023/06/07 07:01:08;;;;;;;9.27;2.95;;;;;;;;;;6215587;23;20036;-90
2023/06/07 07:03:42;;;;;;;14.70;3.65;;;;;;;;;;6216087;23;20013;-90
2023/06/07 07:06:08;;;;;;;10.98;2.88;;;;;;;;;;6189873;23;20000;-89
2023/06/07 07:08:35;;;;;;;9.52;2.78;;;;;;;;;;6190625;23;20011;-90
2023/06/07 07:11:31;;;;;;;10.48;2.75;;;;;;;;;;6190302;23;20015;-89
2023/06/07 07:13:58;;;;;;;10.32;2.83;;;;;;;;;;6190330;23;20009;-90
2023/06/07 07:17:03;;;;;;;9.45;3.00;;;;;;;;;;6189593;23;20020;-90
2023/06/07 07:19:25;;;;;;;12.55;2.72;;;;;;;;;;6222791;23;20012;-94
2023/06/07 07:21:52;;;;;;;13.98;3.45;;;;;;;;;;6201572;23;20013;-93
2023/06/07 07:24:18;;;;;;;16.30;3.10;;;;;;;;;;6206719;23;20028;-93
2023/06/07 07:26:56;;;;;;;12.07;3.20;;;;;;;;;;6202948;23;20039;-93
2023/06/07 07:32:28;;;;;;;21.23;4.35;;;;;;;;;;6204525;23;20012;-90
2023/06/07 07:34:54;;;;;;;7.45;2.83;;;;;;;;;;6198167;23;20013;-95
2023/06/07 07:37:28;;;;;;;16.08;3.72;;;;;;;;;;6197720;23;20435;-93
2023/06/07 07:46:15;;;;;;;9.25;3.95;;;;;;;;;;6119533;23;20040;-93
2023/06/07 07:48:59;;;;;;;7.75;2.97;;;;;;;;;;6137721;23;20012;-94
2023/06/07 07:51:32;;;;;;;12.95;4.40;;;;;;;;;;6137412;23;20009;-94
2023/06/07 07:53:58;;;;;;;8.77;2.53;;;;;;;;;;6137329;23;20044;-95
2023/06/07 07:56:25;;;;;;;6.53;2.75;;;;;;;;;;6138051;23;20022;-94
2023/06/07 07:59:01;;;;;;;6.75;2.90;;;;;;;;;;6139700;23;20070;-94
2023/06/07 08:01:37;;;;;;;20.35;3.45;;;;;;;;;;6167484;23;20009;-94
2023/06/07 08:04:12;;;;;;;10.43;2.92;;;;;;;;;;6170346;23;20317;-93
2023/06/07 08:06:39;;;;;;;9.50;2.70;;;;;;;;;;6143031;23;20069;-94
2023/06/07 08:09:35;;;;;;;10.88;3.83;;;;;;;;;;6145210;23;20016;-94
2023/06/07 08:12:29;;;;;;;8.23;2.83;;;;;;;;;;6169898;23;20044;-94
2023/06/07 08:15:22;;;;;;;;;;;;;;;;;;;;;
2023/06/07 08:17:46;;;;;;;9.65;2.72;;;;;;;;;;6192017;23;20064;-93
2023/06/07 08:20:38;;;;;;;10.15;3.20;;;;;;;;;;6145530;23;20017;-93
2023/06/07 08:23:05;;;;;;;15.05;3.65;;;;;;;;;;6169771;23;20012;-94
2023/06/07 08:28:33;;;;;;;;;;;;;;;;;;;;;
2023/06/07 08:31:18;;;;;;;11.82;2.97;;;;;;;;;;6170448;23;20006;-93
2023/06/07 08:33:47;;;;;;;9.82;3.05;;;;;;;;;;6166851;23;20434;-93
2023/06/07 08:36:15;;;;;;;10.07;3.50;;;;;;;;;;6169086;23;20013;-93
2023/06/07 08:38:44;;;;;;;9.52;3.28;;;;;;;;;;6170378;23;20050;-94
2023/06/07 08:41:13;;;;;;;9.32;3.05;;;;;;;;;;6170492;23;20023;-94
2023/06/07 08:43:53;;;;;;;;;;;;;;;;;;;;;
2023/06/07 08:46:31;;;;;;;;;;;;;;;;;;;;;
2023/06/07 08:48:59;;;;;;;11.77;3.15;;;;;;;;;;6196738;23;20021;-93
2023/06/07 08:51:46;;;;;;;14.05;3.63;;;;;;;;;;6174777;23;19989;-94
2023/06/07 08:54:38;;;;;;;10.88;3.25;;;;;;;;;;6167973;23;20005;-94
2023/06/07 09:01:12;;;;;;;;;;;;;;;;;;;;;
2023/06/07 09:07:23;;;;;;;14.43;3.65;;;;;;;;;;5999655;23;20019;-93
2023/06/07 09:16:53;;;;;;;11.93;2.85;;;;;;;;;;5855456;24;20066;-95
2023/06/07 09:25:38;;;;;;;20.77;4.03;;;;;;;;;;5921045;24;20047;-93
2023/06/07 09:28:24;;;;;;;10.00;3.38;;;;;;;;;;5958852;24;20483;-94
2023/06/07 09:33:51;;;;;;;11.70;3.50;;;;;;;;;;6001026;23;20016;-94
2023/06/07 09:36:20;;;;;;;20.77;3.88;;;;;;;;;;6015594;23;20017;-92
2023/06/07 09:38:46;;;;;;;9.90;3.63;;;;;;;;;;6129768;23;20010;-95
2023/06/07 09:41:22;;;;;;;14.50;3.72;;;;;;;;;;6127984;23;20014;-93
2023/06/07 09:43:55;;;;;;;14.20;4.03;;;;;;;;;;6155271;23;20138;-93
2023/06/07 09:49:18;;;;;;;12.30;3.20;;;;;;;;;;6191777;23;20044;-93
2023/06/07 09:51:45;;;;;;;15.95;4.53;;;;;;;;;;6196747;23;20012;-93
2023/06/07 09:54:37;;;;;;;;;;;;;;;;;;;;;
2023/06/07 09:57:14;;;;;;;11.95;3.90;;;;;;;;;;6232314;22;20020;-93
2023/06/07 10:00:57;;;;;;;;;;;;;;;;;;;;;
2023/06/07 10:16:00;;;;;;;11.52;3.47;;;;;;;;;;6148346;23;20014;-93
2023/06/07 10:19:18;;;;;;;;;;;;;;;;;;;;;
2023/06/07 10:22:14;;;;;;;11.50;3.50;;;;;;;;;;6141947;23;20017;-93
2023/06/07 10:25:07;;;;;;;9.37;3.20;;;;;;;;;;6109957;23;20029;-93
2023/06/07 10:28:16;;;;;;;16.33;4.32;;;;;;;;;;6106421;23;20022;-93
2023/06/07 10:31:14;;;;;;;8.98;3.88;;;;;;;;;;6125627;23;20013;-94
2023/06/07 10:34:07;;;;;;;8.80;4.00;;;;;;;;;;6227239;23;20013;-93
2023/06/07 10:36:42;;;;;;;13.02;4.25;;;;;;;;;;6230453;23;20009;-94
2023/06/07 10:39:15;;;;;;;9.75;3.42;;;;;;;;;;6206045;23;20092;-93
2023/06/07 10:41:43;;;;;;;21.92;4.60;;;;;;;;;;6221812;23;20052;-93
2023/06/07 10:44:19;;;;;;;10.20;4.07;;;;;;;;;;6208799;23;20008;-94
2023/06/07 10:47:07;;;;;;;12.32;4.20;;;;;;;;;;6228200;23;20451;-92
2023/06/07 10:49:37;;;;;;;8.50;4.35;;;;;;;;;;6200603;23;20011;-93
2023/06/07 10:52:15;;;;;;;11.80;4.22;;;;;;;;;;6205898;23;20016;-94
2023/06/07 10:55:11;;;;;;;14.85;5.03;;;;;;;;;;6206210;23;20012;-94
2023/06/07 10:57:40;;;;;;;11.95;3.83;;;;;;;;;;6227637;22;20076;-94
2023/06/07 11:00:30;;;;;;;14.18;4.13;;;;;;;;;;6169773;23;20080;-93
2023/06/07 11:06:45;;;;;;;;;;;;;;;;;;;;;
2023/06/07 11:16:10;;;;;;;10.73;3.85;;;;;;;;;;5891255;24;20090;-93
2023/06/07 11:19:41;;;;;;;12.07;3.65;;;;;;;;;;5838582;24;20014;-93
2023/06/07 11:22:36;;;;;;;13.77;3.95;;;;;;;;;;5736438;24;20019;-94
2023/06/07 11:25:18;;;;;;;8.88;3.13;;;;;;;;;;5725513;25;20021;-94
2023/06/07 11:31:12;;;;;;;13.48;3.50;;;;;;;;;;5760155;25;20071;-94
2023/06/07 11:37:36;;;;;;;;;;;;;;;;;;;;;
2023/06/07 11:40:48;;;;;;;14.43;3.45;;;;;;;;;;5780917;24;20020;-94
2023/06/07 11:43:24;;;;;;;;;;;;;;;;;;;;;
2023/06/07 11:46:24;;;;;;;5.68;3.33;;;;;;;;;;6018400;23;20002;-93
2023/06/07 11:49:10;;;;;;;;;;;;;;;;;;;;;
2023/06/07 11:51:43;;;;;;;12.60;3.25;;;;;;;;;;6087459;23;20030;-94
2023/06/07 11:54:14;;;;;;;9.15;3.70;;;;;;;;;;6146624;23;20004;-93
2023/06/07 11:59:57;;;;;;;15.50;3.35;;;;;;;;;;6217806;23;20012;-94
2023/06/07 12:02:42;;;;;;;7.45;3.10;;;;;;;;;;6199379;23;20012;-91
2023/06/07 12:11:09;;;;;;;9.70;3.40;;;;;;;;;;6230838;23;20016;-93
2023/06/07 12:13:48;;;;;;;11.40;3.17;;;;;;;;;;6201619;23;20051;-94
2023/06/07 12:16:18;;;;;;;8.55;3.28;;;;;;;;;;6200656;23;20013;-94
2023/06/07 12:18:54;;;;;;;12.25;3.53;;;;;;;;;;6203957;23;20063;-93
2023/06/07 12:25:16;;;;;;;;;;;;;;;;;;;;;
2023/06/07 12:28:21;;;;;;;9.15;3.28;;;;;;;;;;6106914;23;20026;-93
2023/06/07 12:37:50;;;;;;;16.10;4.60;;;;;;;;;;6011939;23;20011;-94
2023/06/07 12:40:35;;;;;;;9.90;3.47;;;;;;;;;;6099656;23;20024;-94
2023/06/07 12:43:39;;;;;;;9.07;3.67;;;;;;;;;;6221548;23;20354;-94
2023/06/07 12:46:22;;;;;;;12.63;3.47;;;;;;;;;;6198946;23;20060;-94
2023/06/07 12:49:08;;;;;;;10.80;3.45;;;;;;;;;;6199624;23;20083;-93
2023/06/07 12:51:55;;;;;;;8.50;3.67;;;;;;;;;;6196710;23;20043;-95
2023/06/07 12:54:22;;;;;;;12.63;4.20;;;;;;;;;;6198532;23;20072;-94
2023/06/07 12:57:01;;;;;;;10.27;3.67;;;;;;;;;;6199714;23;20021;-94
2023/06/07 13:02:20;;;;;;;12.93;3.50;;;;;;;;;;6105923;23;20014;-93
2023/06/07 13:04:58;;;;;;;13.85;3.50;;;;;;;;;;6161709;23;20020;-94
2023/06/07 13:07:38;;;;;;;9.32;3.22;;;;;;;;;;6204043;23;20050;-94
2023/06/07 13:10:10;;;;;;;10.82;3.70;;;;;;;;;;6201628;23;20008;-93
2023/06/07 13:12:44;;;;;;;11.10;3.67;;;;;;;;;;6197648;23;20007;-94
2023/06/07 13:15:14;;;;;;;9.30;3.55;;;;;;;;;;6200377;23;20023;-94
2023/06/07 13:17:51;;;;;;;8.55;3.35;;;;;;;;;;6228656;23;20015;-94
2023/06/07 13:23:17;;;;;;;11.85;4.38;;;;;;;;;;6211695;23;20051;-93
2023/06/07 13:25:44;;;;;;;11.90;4.07;;;;;;;;;;6200943;23;20013;-94
2023/06/07 13:28:10;;;;;;;10.38;3.25;;;;;;;;;;6201863;23;20009;-94
2023/06/07 13:36:27;;;;;;;;;;;;;;;;;;;;;
2023/06/07 13:41:43;;;;;;;12.00;4.15;;;;;;;;;;6201224;23;20084;-95
2023/06/07 13:44:21;;;;;;;10.85;4.47;;;;;;;;;;6201548;23;20020;-94
2023/06/07 13:46:49;;;;;;;10.68;3.67;;;;;;;;;;6186426;23;20426;-94
2023/06/07 13:49:44;;;;;;;12.57;4.13;;;;;;;;;;6225158;23;20027;-94
2023/06/07 13:54:57;;;;;;;9.55;3.55;;;;;;;;;;6196937;23;20020;-94
2023/06/07 13:57:28;;;;;;;11.82;3.92;;;;;;;;;;6163572;23;20044;-95
2023/06/07 13:59:55;;;;;;;11.27;4.15;;;;;;;;;;6135755;23;20016;-93
2023/06/07 14:02:27;;;;;;;10.40;3.75;;;;;;;;;;6134345;23;20028;-94
2023/06/07 14:05:00;;;;;;;8.57;3.53;;;;;;;;;;6109866;23;20387;-94
2023/06/07 14:07:42;;;;;;;11.13;3.40;;;;;;;;;;6114780;23;20005;-94
2023/06/07 14:10:12;;;;;;;7.93;3.20;;;;;;;;;;6138696;23;20016;-94
2023/06/07 14:12:48;;;;;;;8.60;3.20;;;;;;;;;;6135418;23;20452;-94
2023/06/07 14:15:16;;;;;;;9.63;3.22;;;;;;;;;;6116086;23;20013;-95
2023/06/07 14:18:01;;;;;;;14.77;4.35;;;;;;;;;;6113956;23;20264;-94
2023/06/07 14:20:27;;;;;;;10.25;3.53;;;;;;;;;;6117661;23;20018;-94
2023/06/07 14:22:53;;;;;;;9.18;3.33;;;;;;;;;;6137825;23;20037;-95
2023/06/07 14:28:25;;;;;;;14.57;3.85;;;;;;;;;;6126374;23;20080;-94
2023/06/07 14:30:52;;;;;;;11.98;3.95;;;;;;;;;;6118508;23;20006;-94
2023/06/07 14:33:19;;;;;;;11.43;3.78;;;;;;;;;;6114444;23;20041;-94
2023/06/07 14:35:49;;;;;;;11.50;3.88;;;;;;;;;;6168250;23;20008;-95
2023/06/07 14:38:24;;;;;;;20.67;4.57;;;;;;;;;;6200152;23;20414;-96
2023/06/07 14:41:01;;;;;;;;;;;;;;;;;;;;;
2023/06/07 14:43:28;;;;;;;11.15;4.22;;;;;;;;;;6225233;23;20036;-94
2023/06/07 14:45:55;;;;;;;12.50;3.90;;;;;;;;;;6199580;23;20009;-94
2023/06/07 14:48:21;;;;;;;12.90;3.78;;;;;;;;;;6200132;23;20009;-95
2023/06/07 14:50:52;;;;;;;16.13;4.43;;;;;;;;;;6199581;23;20013;-94
2023/06/07 14:53:19;;;;;;;10.07;4.05;;;;;;;;;;6199410;23;20374;-94
2023/06/07 14:55:57;;;;;;;14.40;5.28;;;;;;;;;;6199722;23;20064;-95
2023/06/07 14:58:29;;;;;;;16.38;4.43;;;;;;;;;;6200799;23;20442;-94
2023/06/07 15:00:55;;;;;;;9.30;3.75;;;;;;;;;;6199017;23;20005;-94
2023/06/07 15:03:22;;;;;;;9.85;3.55;;;;;;;;;;6198559;23;20027;-94
2023/06/07 15:05:57;;;;;;;13.85;3.67;;;;;;;;;;6199322;23;20382;-94
2023/06/07 15:08:42;;;;;;;8.63;3.70;;;;;;;;;;6199633;23;20001;-94
2023/06/07 15:11:08;;;;;;;9.43;3.67;;;;;;;;;;6198411;23;20000;-94
2023/06/07 15:13:34;;;;;;;17.80;4.50;;;;;;;;;;6197168;23;20009;-95
2023/06/07 15:16:00;;;;;;;14.30;4.25;;;;;;;;;;6197180;23;20005;-94
2023/06/07 15:18:27;;;;;;;14.15;4.13;;;;;;;;;;6197821;23;20076;-94
2023/06/07 15:21:07;;;;;;;13.98;3.40;;;;;;;;;;6224040;23;20061;-94
2023/06/07 15:23:48;;;;;;;10.15;3.55;;;;;;;;;;6197719;23;20013;-94
2023/06/07 15:26:14;;;;;;;10.60;3.63;;;;;;;;;;6198194;23;20052;-93
2023/06/07 15:28:41;;;;;;;14.90;3.97;;;;;;;;;;6198196;23;20008;-95
2023/06/07 15:31:09;;;;;;;17.33;4.15;;;;;;;;;;6199693;23;20012;-94
2023/06/07 15:33:35;;;;;;;15.95;4.50;;;;;;;;;;6198242;23;20012;-94
2023/06/07 15:36:03;;;;;;;10.13;3.80;;;;;;;;;;6200484;23;20023;-95
2023/06/07 15:38:37;;;;;;;21.50;9.95;;;;;;;;;;6199719;23;20012;-94
2023/06/07 15:41:03;;;;;;;50.63;32.63;;;;;;;;;;6200029;23;20016;-96
2023/06/07 15:43:51;;;;;;;11.02;4.38;;;;;;;;;;6199639;23;20012;-93
2023/06/07 15:46:18;;;;;;;13.93;3.90;;;;;;;;;;6200257;23;20004;-94
2023/06/07 15:48:50;;;;;;;11.02;4.22;;;;;;;;;;6199709;23;20004;-95
2023/06/07 15:51:19;;;;;;;9.88;4.32;;;;;;;;;;6199849;23;20450;-95
2023/06/07 15:53:46;;;;;;;12.20;4.55;;;;;;;;;;6201098;23;20059;-94
2023/06/07 15:56:16;;;;;;;17.42;5.07;;;;;;;;;;6199095;23;20071;-94
2023/06/07 15:58:42;;;;;;;14.13;4.90;;;;;;;;;;6199487;23;20494;-95
2023/06/07 16:01:12;;;;;;;14.02;4.47;;;;;;;;;;6201345;23;20011;-95
2023/06/07 16:03:38;;;;;;;16.15;4.43;;;;;;;;;;6199560;23;20477;-94
2023/06/07 16:06:05;;;;;;;13.15;3.75;;;;;;;;;;6199330;23;20064;-93
2023/06/07 16:08:31;;;;;;;15.82;5.10;;;;;;;;;;6197774;23;20008;-94
2023/06/07 16:10:58;;;;;;;12.13;3.97;;;;;;;;;;6199561;23;20031;-94
2023/06/07 16:13:36;;;;;;;15.20;3.55;;;;;;;;;;6196122;23;20015;-94
2023/06/07 16:16:05;;;;;;;15.48;3.80;;;;;;;;;;6196685;23;20388;-94
2023/06/07 16:18:31;;;;;;;12.43;6.03;;;;;;;;;;6197920;23;20009;-95
2023/06/07 16:20:57;;;;;;;13.00;4.18;;;;;;;;;;6196658;23;20370;-94
2023/06/07 16:23:26;;;;;;;18.77;4.55;;;;;;;;;;6197694;23;20051;-94
2023/06/07 16:25:53;;;;;;;18.27;4.43;;;;;;;;;;6196038;23;20005;-95
2023/06/07 16:28:20;;;;;;;11.77;4.20;;;;;;;;;;6197367;23;20012;-93
2023/06/07 16:30:46;;;;;;;18.30;4.65;;;;;;;;;;6196915;23;20057;-93
2023/06/07 16:33:33;;;;;;;17.23;4.25;;;;;;;;;;6198549;23;20015;-94
2023/06/07 16:36:02;;;;;;;18.85;4.82;;;;;;;;;;6197954;23;20035;-93
2023/06/07 16:38:54;;;;;;;17.55;4.53;;;;;;;;;;6230557;23;19993;-96
2023/06/07 16:41:45;;;;;;;19.33;4.88;;;;;;;;;;6205282;23;20016;-95
2023/06/07 16:47:38;;;;;;;11.45;4.45;;;;;;;;;;6228996;23;20015;-94
2023/06/07 16:50:26;;;;;;;16.98;5.32;;;;;;;;;;6174235;23;20016;-95
2023/06/07 16:55:58;;;;;;;;;;;;;;;;;;;;;
2023/06/07 16:58:49;;;;;;;13.23;3.95;;;;;;;;;;6230524;22;20008;-95
2023/06/07 17:04:55;;;;;;;;;;;;;;;;;;;;;
2023/06/07 17:07:11;;;;;;;16.23;4.53;;;;;;;;;;6158866;23;20064;-91
2023/06/07 17:09:43;;;;;;;14.63;4.97;;;;;;;;;;6123533;23;20020;-95
2023/06/07 17:12:14;;;;;;;18.45;5.35;;;;;;;;;;6120831;23;20010;-94
2023/06/07 17:18:03;;;;;;;14.70;5.20;;;;;;;;;;5999322;23;20020;-93
2023/06/07 17:20:44;;;;;;;18.55;5.45;;;;;;;;;;5978063;23;20008;-95
2023/06/07 17:23:25;;;;;;;15.50;5.20;;;;;;;;;;6002403;24;20007;-94
2023/06/07 17:25:52;;;;;;;16.67;5.45;;;;;;;;;;5986790;24;20347;-92
2023/06/07 17:28:18;;;;;;;13.70;4.38;;;;;;;;;;5959301;24;20012;-94
2023/06/07 17:30:45;;;;;;;13.00;5.18;;;;;;;;;;5982353;24;20368;-92
2023/06/07 17:33:11;;;;;;;28.35;6.63;;;;;;;;;;5981121;24;20087;-95
2023/06/07 17:35:37;;;;;;;16.05;4.80;;;;;;;;;;6039902;23;20091;-93
2023/06/07 17:38:04;;;;;;;15.10;5.25;;;;;;;;;;6088613;23;20006;-96
2023/06/07 17:40:30;;;;;;;18.23;5.20;;;;;;;;;;6108590;23;20013;-95
2023/06/07 17:42:59;;;;;;;17.88;4.97;;;;;;;;;;6109484;23;20005;-94
2023/06/07 17:45:27;;;;;;;14.35;4.45;;;;;;;;;;6182997;23;20013;-95
2023/06/07 17:47:54;;;;;;;12.60;4.78;;;;;;;;;;6195485;23;20012;-94
2023/06/07 17:50:25;;;;;;;16.60;4.63;;;;;;;;;;6194226;23;20009;-94
2023/06/07 17:52:57;;;;;;;11.13;4.22;;;;;;;;;;6196186;23;19993;-94
2023/06/07 17:55:24;;;;;;;13.25;4.88;;;;;;;;;;6192678;23;20020;-92